sensor_id;sensor_type;location;lat;lon;timestamp;P1;durP1;ratioP1;P2;durP2;ratioP2
76310;SDS011;65120;59.304;18.294;2024-01-06T00:00:10;3.97;;;0.90;;
76310;SDS011;65120;59.304;18.294;2024-01-06T00:02:39;3.65;;;1.10;;
76310;SDS011;65120;59.304;18.294;2024-01-06T00:05:06;2.33;;;0.65;;
76310;SDS011;65120;59.304;18.294;2024-01-06T00:07:34;1.55;;;0.50;;
76310;SDS011;65120;59.304;18.294;2024-01-06T00:10:01;2.88;;;1.02;;
76310;SDS011;65120;59.304;18.294;2024-01-06T00:12:28;2.10;;;0.90;;
76310;SDS011;65120;59.304;18.294;2024-01-06T00:14:55;2.05;;;0.52;;
76310;SDS011;65120;59.304;18.294;2024-01-06T00:17:22;3.25;;;0.70;;
76310;SDS011;65120;59.304;18.294;2024-01-06T00:19:50;5.20;;;0.95;;
76310;SDS011;65120;59.304;18.294;2024-01-06T00:22:17;1.98;;;0.60;;
76310;SDS011;65120;59.304;18.294;2024-01-06T00:24:44;1.65;;;0.50;;
76310;SDS011;65120;59.304;18.294;2024-01-06T00:27:11;1.70;;;0.40;;
76310;SDS011;65120;59.304;18.294;2024-01-06T00:29:39;3.58;;;0.52;;
76310;SDS011;65120;59.304;18.294;2024-01-06T00:32:05;4.35;;;0.90;;
76310;SDS011;65120;59.304;18.294;2024-01-06T00:34:33;2.05;;;0.50;;
76310;SDS011;65120;59.304;18.294;2024-01-06T00:37:01;3.00;;;0.63;;
76310;SDS011;65120;59.304;18.294;2024-01-06T00:39:28;2.67;;;0.75;;
76310;SDS011;65120;59.304;18.294;2024-01-06T00:41:55;2.38;;;0.50;;
76310;SDS011;65120;59.304;18.294;2024-01-06T00:44:22;2.22;;;0.40;;
76310;SDS011;65120;59.304;18.294;2024-01-06T00:46:49;2.38;;;0.52;;
76310;SDS011;65120;59.304;18.294;2024-01-06T00:49:16;1.45;;;0.35;;
76310;SDS011;65120;59.304;18.294;2024-01-06T00:51:43;1.02;;;0.35;;
76310;SDS011;65120;59.304;18.294;2024-01-06T00:54:11;0.77;;;0.28;;
76310;SDS011;65120;59.304;18.294;2024-01-06T00:56:38;5.85;;;0.52;;
76310;SDS011;65120;59.304;18.294;2024-01-06T00:59:07;2.03;;;0.50;;
76310;SDS011;65120;59.304;18.294;2024-01-06T01:01:34;1.95;;;0.60;;
76310;SDS011;65120;59.304;18.294;2024-01-06T01:04:01;0.98;;;0.35;;
76310;SDS011;65120;59.304;18.294;2024-01-06T01:06:28;0.73;;;0.20;;
76310;SDS011;65120;59.304;18.294;2024-01-06T01:08:55;1.15;;;0.50;;
76310;SDS011;65120;59.304;18.294;2024-01-06T01:11:23;4.43;;;0.60;;
76310;SDS011;65120;59.304;18.294;2024-01-06T01:13:51;3.55;;;0.40;;
76310;SDS011;65120;59.304;18.294;2024-01-06T01:16:18;2.65;;;0.40;;
76310;SDS011;65120;59.304;18.294;2024-01-06T01:18:44;1.95;;;0.63;;
76310;SDS011;65120;59.304;18.294;2024-01-06T01:21:11;1.88;;;0.50;;
76310;SDS011;65120;59.304;18.294;2024-01-06T01:23:38;1.38;;;0.55;;
76310;SDS011;65120;59.304;18.294;2024-01-06T01:26:05;1.08;;;0.43;;
76310;SDS011;65120;59.304;18.294;2024-01-06T01:28:34;2.40;;;0.30;;
76310;SDS011;65120;59.304;18.294;2024-01-06T01:31:01;0.95;;;0.40;;
76310;SDS011;65120;59.304;18.294;2024-01-06T01:33:28;1.08;;;0.40;;
76310;SDS011;65120;59.304;18.294;2024-01-06T01:35:55;0.50;;;0.30;;
76310;SDS011;65120;59.304;18.294;2024-01-06T01:38:22;1.45;;;0.40;;
76310;SDS011;65120;59.304;18.294;2024-01-06T01:40:49;1.50;;;0.75;;
76310;SDS011;65120;59.304;18.294;2024-01-06T01:43:16;1.40;;;0.60;;
76310;SDS011;65120;59.304;18.294;2024-01-06T01:45:45;1.08;;;0.50;;
76310;SDS011;65120;59.304;18.294;2024-01-06T01:48:16;1.67;;;0.32;;
76310;SDS011;65120;59.304;18.294;2024-01-06T01:50:44;1.05;;;0.28;;
76310;SDS011;65120;59.304;18.294;2024-01-06T01:53:11;0.80;;;0.40;;
76310;SDS011;65120;59.304;18.294;2024-01-06T01:55:40;1.58;;;0.50;;
76310;SDS011;65120;59.304;18.294;2024-01-06T01:58:09;0.73;;;0.25;;
76310;SDS011;65120;59.304;18.294;2024-01-06T02:00:38;0.68;;;0.30;;
76310;SDS011;65120;59.304;18.294;2024-01-06T02:03:10;2.17;;;0.30;;
76310;SDS011;65120;59.304;18.294;2024-01-06T02:05:42;0.45;;;0.30;;
76310;SDS011;65120;59.304;18.294;2024-01-06T02:08:09;1.02;;;0.47;;
76310;SDS011;65120;59.304;18.294;2024-01-06T02:10:36;0.88;;;0.30;;
76310;SDS011;65120;59.304;18.294;2024-01-06T02:13:09;2.22;;;0.17;;
76310;SDS011;65120;59.304;18.294;2024-01-06T02:15:37;0.43;;;0.20;;
76310;SDS011;65120;59.304;18.294;2024-01-06T02:18:04;0.73;;;0.45;;
76310;SDS011;65120;59.304;18.294;2024-01-06T02:20:33;0.40;;;0.30;;
76310;SDS011;65120;59.304;18.294;2024-01-06T02:23:02;1.15;;;0.40;;
76310;SDS011;65120;59.304;18.294;2024-01-06T02:25:32;1.92;;;0.43;;
76310;SDS011;65120;59.304;18.294;2024-01-06T02:28:00;0.47;;;0.30;;
76310;SDS011;65120;59.304;18.294;2024-01-06T02:30:27;1.38;;;0.50;;
76310;SDS011;65120;59.304;18.294;2024-01-06T02:32:54;0.63;;;0.35;;
76310;SDS011;65120;59.304;18.294;2024-01-06T02:35:21;1.08;;;0.30;;
76310;SDS011;65120;59.304;18.294;2024-01-06T02:37:48;1.73;;;0.40;;
76310;SDS011;65120;59.304;18.294;2024-01-06T02:40:16;0.95;;;0.38;;
76310;SDS011;65120;59.304;18.294;2024-01-06T02:42:43;1.08;;;0.50;;
76310;SDS011;65120;59.304;18.294;2024-01-06T02:45:10;1.63;;;0.25;;
76310;SDS011;65120;59.304;18.294;2024-01-06T02:47:37;3.67;;;0.40;;
76310;SDS011;65120;59.304;18.294;2024-01-06T02:50:05;4.47;;;0.45;;
76310;SDS011;65120;59.304;18.294;2024-01-06T02:52:32;0.60;;;0.30;;
76310;SDS011;65120;59.304;18.294;2024-01-06T02:54:59;0.68;;;0.20;;
76310;SDS011;65120;59.304;18.294;2024-01-06T02:57:29;0.68;;;0.30;;
76310;SDS011;65120;59.304;18.294;2024-01-06T02:59:56;1.30;;;0.50;;
76310;SDS011;65120;59.304;18.294;2024-01-06T03:02:22;0.52;;;0.35;;
76310;SDS011;65120;59.304;18.294;2024-01-06T03:04:49;1.40;;;0.60;;
76310;SDS011;65120;59.304;18.294;2024-01-06T03:07:16;0.60;;;0.20;;
76310;SDS011;65120;59.304;18.294;2024-01-06T03:09:43;0.80;;;0.32;;
76310;SDS011;65120;59.304;18.294;2024-01-06T03:12:10;3.03;;;0.30;;
76310;SDS011;65120;59.304;18.294;2024-01-06T03:14:39;1.05;;;0.32;;
76310;SDS011;65120;59.304;18.294;2024-01-06T03:17:06;0.88;;;0.35;;
76310;SDS011;65120;59.304;18.294;2024-01-06T03:19:35;1.40;;;0.30;;
76310;SDS011;65120;59.304;18.294;2024-01-06T03:22:02;0.55;;;0.30;;
76310;SDS011;65120;59.304;18.294;2024-01-06T03:24:30;0.82;;;0.30;;
76310;SDS011;65120;59.304;18.294;2024-01-06T03:26:57;1.45;;;0.40;;
76310;SDS011;65120;59.304;18.294;2024-01-06T03:29:24;0.80;;;0.50;;
76310;SDS011;65120;59.304;18.294;2024-01-06T03:31:52;1.85;;;0.40;;
76310;SDS011;65120;59.304;18.294;2024-01-06T03:34:19;0.80;;;0.40;;
76310;SDS011;65120;59.304;18.294;2024-01-06T03:36:46;0.57;;;0.30;;
76310;SDS011;65120;59.304;18.294;2024-01-06T03:39:12;1.70;;;0.50;;
76310;SDS011;65120;59.304;18.294;2024-01-06T03:41:39;0.88;;;0.40;;
76310;SDS011;65120;59.304;18.294;2024-01-06T03:44:06;2.55;;;0.50;;
76310;SDS011;65120;59.304;18.294;2024-01-06T03:46:34;1.17;;;0.30;;
76310;SDS011;65120;59.304;18.294;2024-01-06T03:49:02;2.05;;;0.50;;
76310;SDS011;65120;59.304;18.294;2024-01-06T03:51:29;0.52;;;0.30;;
76310;SDS011;65120;59.304;18.294;2024-01-06T03:53:56;1.65;;;0.50;;
76310;SDS011;65120;59.304;18.294;2024-01-06T03:56:23;1.67;;;0.40;;
76310;SDS011;65120;59.304;18.294;2024-01-06T03:58:50;0.82;;;0.40;;
76310;SDS011;65120;59.304;18.294;2024-01-06T04:01:17;1.60;;;0.50;;
76310;SDS011;65120;59.304;18.294;2024-01-06T04:03:44;0.68;;;0.32;;
76310;SDS011;65120;59.304;18.294;2024-01-06T04:06:12;1.25;;;0.30;;
76310;SDS011;65120;59.304;18.294;2024-01-06T04:08:40;1.75;;;0.40;;
76310;SDS011;65120;59.304;18.294;2024-01-06T04:11:07;0.85;;;0.30;;
76310;SDS011;65120;59.304;18.294;2024-01-06T04:13:34;1.42;;;0.47;;
76310;SDS011;65120;59.304;18.294;2024-01-06T04:16:01;1.23;;;0.40;;
76310;SDS011;65120;59.304;18.294;2024-01-06T04:18:28;1.45;;;0.20;;
76310;SDS011;65120;59.304;18.294;2024-01-06T04:20:54;0.43;;;0.20;;
76310;SDS011;65120;59.304;18.294;2024-01-06T04:23:23;1.58;;;0.40;;
76310;SDS011;65120;59.304;18.294;2024-01-06T04:25:49;0.50;;;0.25;;
76310;SDS011;65120;59.304;18.294;2024-01-06T04:28:16;0.77;;;0.30;;
76310;SDS011;65120;59.304;18.294;2024-01-06T04:30:43;0.55;;;0.20;;
76310;SDS011;65120;59.304;18.294;2024-01-06T04:33:10;1.40;;;0.50;;
76310;SDS011;65120;59.304;18.294;2024-01-06T04:35:37;1.58;;;0.45;;
76310;SDS011;65120;59.304;18.294;2024-01-06T04:38:04;0.75;;;0.40;;
76310;SDS011;65120;59.304;18.294;2024-01-06T04:40:32;1.05;;;0.52;;
76310;SDS011;65120;59.304;18.294;2024-01-06T04:42:59;0.85;;;0.30;;
76310;SDS011;65120;59.304;18.294;2024-01-06T04:45:26;0.95;;;0.35;;
76310;SDS011;65120;59.304;18.294;2024-01-06T04:47:53;2.22;;;0.30;;
76310;SDS011;65120;59.304;18.294;2024-01-06T04:50:20;0.40;;;0.22;;
76310;SDS011;65120;59.304;18.294;2024-01-06T04:52:47;1.45;;;0.32;;
76310;SDS011;65120;59.304;18.294;2024-01-06T04:55:14;3.35;;;0.30;;
76310;SDS011;65120;59.304;18.294;2024-01-06T04:57:43;0.65;;;0.30;;
76310;SDS011;65120;59.304;18.294;2024-01-06T05:00:10;1.10;;;0.30;;
76310;SDS011;65120;59.304;18.294;2024-01-06T05:02:38;0.65;;;0.20;;
76310;SDS011;65120;59.304;18.294;2024-01-06T05:05:05;0.45;;;0.30;;
76310;SDS011;65120;59.304;18.294;2024-01-06T05:07:32;1.17;;;0.22;;
76310;SDS011;65120;59.304;18.294;2024-01-06T05:09:59;1.27;;;0.38;;
76310;SDS011;65120;59.304;18.294;2024-01-06T05:12:27;0.63;;;0.40;;
76310;SDS011;65120;59.304;18.294;2024-01-06T05:14:55;4.40;;;0.40;;
76310;SDS011;65120;59.304;18.294;2024-01-06T05:17:22;1.73;;;0.30;;
76310;SDS011;65120;59.304;18.294;2024-01-06T05:19:49;1.60;;;0.28;;
76310;SDS011;65120;59.304;18.294;2024-01-06T05:22:16;1.15;;;0.40;;
76310;SDS011;65120;59.304;18.294;2024-01-06T05:24:43;1.55;;;0.40;;
76310;SDS011;65120;59.304;18.294;2024-01-06T05:27:11;1.27;;;0.20;;
76310;SDS011;65120;59.304;18.294;2024-01-06T05:29:38;1.08;;;0.30;;
76310;SDS011;65120;59.304;18.294;2024-01-06T05:32:07;0.88;;;0.50;;
76310;SDS011;65120;59.304;18.294;2024-01-06T05:34:34;0.40;;;0.20;;
76310;SDS011;65120;59.304;18.294;2024-01-06T05:37:00;0.50;;;0.20;;
76310;SDS011;65120;59.304;18.294;2024-01-06T05:39:28;0.75;;;0.30;;
76310;SDS011;65120;59.304;18.294;2024-01-06T05:41:55;2.47;;;0.30;;
76310;SDS011;65120;59.304;18.294;2024-01-06T05:44:21;0.82;;;0.28;;
76310;SDS011;65120;59.304;18.294;2024-01-06T05:46:48;1.00;;;0.22;;
76310;SDS011;65120;59.304;18.294;2024-01-06T05:49:17;0.77;;;0.30;;
76310;SDS011;65120;59.304;18.294;2024-01-06T05:51:44;0.50;;;0.30;;
76310;SDS011;65120;59.304;18.294;2024-01-06T05:54:11;0.85;;;0.20;;
76310;SDS011;65120;59.304;18.294;2024-01-06T05:56:38;0.73;;;0.30;;
76310;SDS011;65120;59.304;18.294;2024-01-06T05:59:05;1.08;;;0.20;;
76310;SDS011;65120;59.304;18.294;2024-01-06T06:01:32;0.68;;;0.20;;
76310;SDS011;65120;59.304;18.294;2024-01-06T06:03:59;0.82;;;0.38;;
76310;SDS011;65120;59.304;18.294;2024-01-06T06:06:28;2.08;;;0.25;;
76310;SDS011;65120;59.304;18.294;2024-01-06T06:08:55;1.95;;;0.30;;
76310;SDS011;65120;59.304;18.294;2024-01-06T06:11:22;0.85;;;0.20;;
76310;SDS011;65120;59.304;18.294;2024-01-06T06:13:49;0.77;;;0.50;;
76310;SDS011;65120;59.304;18.294;2024-01-06T06:16:16;3.28;;;0.40;;
76310;SDS011;65120;59.304;18.294;2024-01-06T06:18:43;0.98;;;0.30;;
76310;SDS011;65120;59.304;18.294;2024-01-06T06:21:10;0.60;;;0.30;;
76310;SDS011;65120;59.304;18.294;2024-01-06T06:23:38;0.68;;;0.30;;
76310;SDS011;65120;59.304;18.294;2024-01-06T06:26:05;0.88;;;0.30;;
76310;SDS011;65120;59.304;18.294;2024-01-06T06:28:33;1.30;;;0.40;;
76310;SDS011;65120;59.304;18.294;2024-01-06T06:31:00;3.17;;;0.50;;
76310;SDS011;65120;59.304;18.294;2024-01-06T06:33:28;0.95;;;0.30;;
76310;SDS011;65120;59.304;18.294;2024-01-06T06:35:54;0.90;;;0.32;;
76310;SDS011;65120;59.304;18.294;2024-01-06T06:38:21;1.67;;;0.40;;
76310;SDS011;65120;59.304;18.294;2024-01-06T06:40:50;0.65;;;0.22;;
76310;SDS011;65120;59.304;18.294;2024-01-06T06:43:17;1.42;;;0.20;;
76310;SDS011;65120;59.304;18.294;2024-01-06T06:45:44;2.17;;;0.40;;
76310;SDS011;65120;59.304;18.294;2024-01-06T06:48:11;0.75;;;0.22;;
76310;SDS011;65120;59.304;18.294;2024-01-06T06:50:37;0.80;;;0.40;;
76310;SDS011;65120;59.304;18.294;2024-01-06T06:53:06;0.80;;;0.38;;
76310;SDS011;65120;59.304;18.294;2024-01-06T06:55:33;1.00;;;0.43;;
76310;SDS011;65120;59.304;18.294;2024-01-06T06:58:01;2.35;;;0.50;;
76310;SDS011;65120;59.304;18.294;2024-01-06T07:00:28;1.05;;;0.60;;
76310;SDS011;65120;59.304;18.294;2024-01-06T07:02:55;1.25;;;0.40;;
76310;SDS011;65120;59.304;18.294;2024-01-06T07:05:22;1.00;;;0.45;;
76310;SDS011;65120;59.304;18.294;2024-01-06T07:07:49;0.50;;;0.20;;
76310;SDS011;65120;59.304;18.294;2024-01-06T07:10:16;1.30;;;0.40;;
76310;SDS011;65120;59.304;18.294;2024-01-06T07:12:43;0.88;;;0.28;;
76310;SDS011;65120;59.304;18.294;2024-01-06T07:15:12;1.20;;;0.47;;
76310;SDS011;65120;59.304;18.294;2024-01-06T07:17:39;0.88;;;0.40;;
76310;SDS011;65120;59.304;18.294;2024-01-06T07:20:06;0.65;;;0.25;;
76310;SDS011;65120;59.304;18.294;2024-01-06T07:22:34;0.77;;;0.30;;
76310;SDS011;65120;59.304;18.294;2024-01-06T07:25:02;1.83;;;0.65;;
76310;SDS011;65120;59.304;18.294;2024-01-06T07:27:29;1.08;;;0.40;;
76310;SDS011;65120;59.304;18.294;2024-01-06T07:29:56;2.05;;;0.50;;
76310;SDS011;65120;59.304;18.294;2024-01-06T07:32:25;1.48;;;0.50;;
76310;SDS011;65120;59.304;18.294;2024-01-06T07:34:52;1.02;;;0.47;;
76310;SDS011;65120;59.304;18.294;2024-01-06T07:37:19;1.52;;;0.30;;
76310;SDS011;65120;59.304;18.294;2024-01-06T07:39:46;1.50;;;0.30;;
76310;SDS011;65120;59.304;18.294;2024-01-06T07:42:13;0.65;;;0.38;;
76310;SDS011;65120;59.304;18.294;2024-01-06T07:44:40;0.35;;;0.30;;
76310;SDS011;65120;59.304;18.294;2024-01-06T07:47:07;1.30;;;0.45;;
76310;SDS011;65120;59.304;18.294;2024-01-06T07:49:35;0.90;;;0.38;;
76310;SDS011;65120;59.304;18.294;2024-01-06T07:52:02;2.05;;;0.40;;
76310;SDS011;65120;59.304;18.294;2024-01-06T07:54:30;2.80;;;0.57;;
76310;SDS011;65120;59.304;18.294;2024-01-06T07:56:57;2.08;;;0.52;;
76310;SDS011;65120;59.304;18.294;2024-01-06T07:59:24;1.50;;;0.43;;
76310;SDS011;65120;59.304;18.294;2024-01-06T08:01:51;2.30;;;0.47;;
76310;SDS011;65120;59.304;18.294;2024-01-06T08:04:18;1.77;;;0.50;;
76310;SDS011;65120;59.304;18.294;2024-01-06T08:06:46;1.35;;;0.40;;
76310;SDS011;65120;59.304;18.294;2024-01-06T08:09:13;1.15;;;0.40;;
76310;SDS011;65120;59.304;18.294;2024-01-06T08:11:40;2.40;;;0.60;;
76310;SDS011;65120;59.304;18.294;2024-01-06T08:14:11;5.03;;;0.77;;
76310;SDS011;65120;59.304;18.294;2024-01-06T08:16:38;2.60;;;0.50;;
76310;SDS011;65120;59.304;18.294;2024-01-06T08:19:05;1.52;;;0.40;;
76310;SDS011;65120;59.304;18.294;2024-01-06T08:21:32;0.80;;;0.40;;
76310;SDS011;65120;59.304;18.294;2024-01-06T08:24:01;0.93;;;0.47;;
76310;SDS011;65120;59.304;18.294;2024-01-06T08:26:28;0.70;;;0.45;;
76310;SDS011;65120;59.304;18.294;2024-01-06T08:28:55;3.33;;;0.60;;
76310;SDS011;65120;59.304;18.294;2024-01-06T08:31:22;2.75;;;0.60;;
76310;SDS011;65120;59.304;18.294;2024-01-06T08:33:49;1.92;;;0.52;;
76310;SDS011;65120;59.304;18.294;2024-01-06T08:36:16;2.53;;;0.60;;
76310;SDS011;65120;59.304;18.294;2024-01-06T08:38:43;1.63;;;0.60;;
76310;SDS011;65120;59.304;18.294;2024-01-06T08:41:14;3.28;;;0.55;;
76310;SDS011;65120;59.304;18.294;2024-01-06T08:43:41;1.02;;;0.30;;
76310;SDS011;65120;59.304;18.294;2024-01-06T08:46:11;2.75;;;0.88;;
76310;SDS011;65120;59.304;18.294;2024-01-06T08:48:38;1.77;;;0.63;;
76310;SDS011;65120;59.304;18.294;2024-01-06T08:51:05;1.85;;;0.50;;
76310;SDS011;65120;59.304;18.294;2024-01-06T08:53:32;4.85;;;0.95;;
76310;SDS011;65120;59.304;18.294;2024-01-06T08:55:59;2.72;;;0.60;;
76310;SDS011;65120;59.304;18.294;2024-01-06T08:58:27;1.15;;;0.52;;
76310;SDS011;65120;59.304;18.294;2024-01-06T09:00:54;1.15;;;0.40;;
76310;SDS011;65120;59.304;18.294;2024-01-06T09:03:21;1.70;;;0.65;;
76310;SDS011;65120;59.304;18.294;2024-01-06T09:05:51;1.23;;;0.40;;
76310;SDS011;65120;59.304;18.294;2024-01-06T09:08:18;2.17;;;0.70;;
76310;SDS011;65120;59.304;18.294;2024-01-06T09:10:45;1.95;;;0.50;;
76310;SDS011;65120;59.304;18.294;2024-01-06T09:13:13;1.40;;;0.57;;
76310;SDS011;65120;59.304;18.294;2024-01-06T09:15:41;2.95;;;0.68;;
76310;SDS011;65120;59.304;18.294;2024-01-06T09:18:08;3.55;;;0.80;;
76310;SDS011;65120;59.304;18.294;2024-01-06T09:20:35;6.50;;;1.20;;
76310;SDS011;65120;59.304;18.294;2024-01-06T09:23:03;4.90;;;1.33;;
76310;SDS011;65120;59.304;18.294;2024-01-06T09:25:30;2.95;;;0.77;;
76310;SDS011;65120;59.304;18.294;2024-01-06T09:27:57;3.30;;;0.73;;
76310;SDS011;65120;59.304;18.294;2024-01-06T09:30:24;1.67;;;0.70;;
76310;SDS011;65120;59.304;18.294;2024-01-06T09:32:54;1.75;;;0.75;;
76310;SDS011;65120;59.304;18.294;2024-01-06T09:35:20;3.33;;;0.68;;
76310;SDS011;65120;59.304;18.294;2024-01-06T09:37:48;2.53;;;1.00;;
76310;SDS011;65120;59.304;18.294;2024-01-06T09:40:17;2.50;;;1.20;;
76310;SDS011;65120;59.304;18.294;2024-01-06T09:42:48;4.57;;;1.38;;
76310;SDS011;65120;59.304;18.294;2024-01-06T09:45:15;5.47;;;1.35;;
76310;SDS011;65120;59.304;18.294;2024-01-06T09:47:42;3.08;;;0.95;;
76310;SDS011;65120;59.304;18.294;2024-01-06T09:50:16;5.07;;;1.27;;
76310;SDS011;65120;59.304;18.294;2024-01-06T09:52:45;5.65;;;1.05;;
76310;SDS011;65120;59.304;18.294;2024-01-06T09:55:20;1.23;;;0.65;;
76310;SDS011;65120;59.304;18.294;2024-01-06T09:57:51;4.28;;;1.38;;
76310;SDS011;65120;59.304;18.294;2024-01-06T10:00:19;2.35;;;0.93;;
76310;SDS011;65120;59.304;18.294;2024-01-06T10:02:46;1.52;;;0.60;;
76310;SDS011;65120;59.304;18.294;2024-01-06T10:05:14;2.90;;;0.70;;
76310;SDS011;65120;59.304;18.294;2024-01-06T10:07:43;1.80;;;1.05;;
76310;SDS011;65120;59.304;18.294;2024-01-06T10:10:11;4.00;;;1.20;;
76310;SDS011;65120;59.304;18.294;2024-01-06T10:12:38;2.40;;;0.82;;
76310;SDS011;65120;59.304;18.294;2024-01-06T10:15:05;4.82;;;1.08;;
76310;SDS011;65120;59.304;18.294;2024-01-06T10:17:34;3.90;;;1.10;;
76310;SDS011;65120;59.304;18.294;2024-01-06T10:20:06;3.40;;;0.95;;
76310;SDS011;65120;59.304;18.294;2024-01-06T10:22:36;3.88;;;0.60;;
76310;SDS011;65120;59.304;18.294;2024-01-06T10:25:07;1.95;;;0.65;;
76310;SDS011;65120;59.304;18.294;2024-01-06T10:27:36;1.15;;;0.45;;
76310;SDS011;65120;59.304;18.294;2024-01-06T10:30:05;4.25;;;0.60;;
76310;SDS011;65120;59.304;18.294;2024-01-06T10:32:33;4.72;;;0.90;;
76310;SDS011;65120;59.304;18.294;2024-01-06T10:35:01;1.40;;;0.50;;
76310;SDS011;65120;59.304;18.294;2024-01-06T10:37:29;4.28;;;0.85;;
76310;SDS011;65120;59.304;18.294;2024-01-06T10:40:11;3.13;;;0.82;;
76310;SDS011;65120;59.304;18.294;2024-01-06T10:42:40;2.70;;;1.08;;
76310;SDS011;65120;59.304;18.294;2024-01-06T10:45:07;2.22;;;0.75;;
76310;SDS011;65120;59.304;18.294;2024-01-06T10:47:35;2.50;;;0.60;;
76310;SDS011;65120;59.304;18.294;2024-01-06T10:50:03;1.67;;;0.68;;
76310;SDS011;65120;59.304;18.294;2024-01-06T10:52:31;5.95;;;0.90;;
76310;SDS011;65120;59.304;18.294;2024-01-06T10:54:59;4.28;;;1.10;;
76310;SDS011;65120;59.304;18.294;2024-01-06T10:57:30;2.72;;;0.68;;
76310;SDS011;65120;59.304;18.294;2024-01-06T10:59:58;1.95;;;0.60;;
76310;SDS011;65120;59.304;18.294;2024-01-06T11:02:26;1.58;;;0.70;;
76310;SDS011;65120;59.304;18.294;2024-01-06T11:04:53;5.78;;;1.08;;
76310;SDS011;65120;59.304;18.294;2024-01-06T11:07:21;3.13;;;1.00;;
76310;SDS011;65120;59.304;18.294;2024-01-06T11:09:52;4.88;;;1.58;;
76310;SDS011;65120;59.304;18.294;2024-01-06T11:12:22;4.78;;;1.17;;
76310;SDS011;65120;59.304;18.294;2024-01-06T11:14:52;2.97;;;1.15;;
76310;SDS011;65120;59.304;18.294;2024-01-06T11:20:23;3.00;;;1.00;;
76310;SDS011;65120;59.304;18.294;2024-01-06T11:22:51;4.47;;;1.17;;
76310;SDS011;65120;59.304;18.294;2024-01-06T11:25:20;5.25;;;2.13;;
76310;SDS011;65120;59.304;18.294;2024-01-06T11:27:49;3.08;;;0.90;;
76310;SDS011;65120;59.304;18.294;2024-01-06T11:30:24;1.38;;;0.70;;
76310;SDS011;65120;59.304;18.294;2024-01-06T11:32:52;0.88;;;0.40;;
76310;SDS011;65120;59.304;18.294;2024-01-06T11:35:20;2.90;;;0.95;;
76310;SDS011;65120;59.304;18.294;2024-01-06T11:37:52;2.60;;;0.82;;
76310;SDS011;65120;59.304;18.294;2024-01-06T11:40:24;1.58;;;0.63;;
76310;SDS011;65120;59.304;18.294;2024-01-06T11:42:58;1.80;;;0.60;;
76310;SDS011;65120;59.304;18.294;2024-01-06T11:45:28;1.13;;;0.60;;
76310;SDS011;65120;59.304;18.294;2024-01-06T11:47:55;4.05;;;0.90;;
76310;SDS011;65120;59.304;18.294;2024-01-06T11:50:24;1.45;;;0.90;;
76310;SDS011;65120;59.304;18.294;2024-01-06T11:52:51;2.47;;;0.60;;
76310;SDS011;65120;59.304;18.294;2024-01-06T11:55:18;2.53;;;1.05;;
76310;SDS011;65120;59.304;18.294;2024-01-06T11:57:46;1.30;;;0.60;;
76310;SDS011;65120;59.304;18.294;2024-01-06T12:00:14;3.40;;;0.95;;
76310;SDS011;65120;59.304;18.294;2024-01-06T12:02:43;2.05;;;0.85;;
76310;SDS011;65120;59.304;18.294;2024-01-06T12:05:14;2.42;;;0.70;;
76310;SDS011;65120;59.304;18.294;2024-01-06T12:07:43;1.67;;;0.93;;
76310;SDS011;65120;59.304;18.294;2024-01-06T12:10:10;3.72;;;0.77;;
76310;SDS011;65120;59.304;18.294;2024-01-06T12:12:39;0.77;;;0.47;;
76310;SDS011;65120;59.304;18.294;2024-01-06T12:15:06;1.88;;;0.63;;
76310;SDS011;65120;59.304;18.294;2024-01-06T12:17:35;1.40;;;0.60;;
76310;SDS011;65120;59.304;18.294;2024-01-06T12:20:08;1.77;;;0.60;;
76310;SDS011;65120;59.304;18.294;2024-01-06T12:22:37;3.55;;;0.88;;
76310;SDS011;65120;59.304;18.294;2024-01-06T12:25:04;3.10;;;0.90;;
76310;SDS011;65120;59.304;18.294;2024-01-06T12:27:32;2.63;;;0.73;;
76310;SDS011;65120;59.304;18.294;2024-01-06T12:29:59;4.88;;;1.20;;
76310;SDS011;65120;59.304;18.294;2024-01-06T12:32:26;3.90;;;0.70;;
76310;SDS011;65120;59.304;18.294;2024-01-06T12:34:54;2.50;;;0.70;;
76310;SDS011;65120;59.304;18.294;2024-01-06T12:37:23;1.38;;;0.68;;
76310;SDS011;65120;59.304;18.294;2024-01-06T12:39:50;1.90;;;0.95;;
76310;SDS011;65120;59.304;18.294;2024-01-06T12:42:17;2.38;;;1.23;;
76310;SDS011;65120;59.304;18.294;2024-01-06T12:44:47;6.05;;;1.95;;
76310;SDS011;65120;59.304;18.294;2024-01-06T12:47:13;3.17;;;1.48;;
76310;SDS011;65120;59.304;18.294;2024-01-06T12:49:40;7.80;;;2.58;;
76310;SDS011;65120;59.304;18.294;2024-01-06T12:52:08;6.93;;;2.08;;
76310;SDS011;65120;59.304;18.294;2024-01-06T12:54:36;6.82;;;1.98;;
76310;SDS011;65120;59.304;18.294;2024-01-06T12:57:04;3.28;;;1.17;;
76310;SDS011;65120;59.304;18.294;2024-01-06T12:59:31;2.15;;;0.88;;
76310;SDS011;65120;59.304;18.294;2024-01-06T13:02:01;3.70;;;0.60;;
76310;SDS011;65120;59.304;18.294;2024-01-06T13:04:28;3.28;;;0.50;;
76310;SDS011;65120;59.304;18.294;2024-01-06T13:06:55;2.08;;;0.50;;
76310;SDS011;65120;59.304;18.294;2024-01-06T13:09:22;3.13;;;1.35;;
76310;SDS011;65120;59.304;18.294;2024-01-06T13:11:51;1.70;;;1.00;;
76310;SDS011;65120;59.304;18.294;2024-01-06T13:14:20;5.18;;;1.00;;
76310;SDS011;65120;59.304;18.294;2024-01-06T13:16:48;4.65;;;0.70;;
76310;SDS011;65120;59.304;18.294;2024-01-06T13:19:15;3.05;;;1.00;;
76310;SDS011;65120;59.304;18.294;2024-01-06T13:21:42;2.28;;;0.60;;
76310;SDS011;65120;59.304;18.294;2024-01-06T13:24:09;1.40;;;0.73;;
76310;SDS011;65120;59.304;18.294;2024-01-06T13:26:38;2.00;;;0.80;;
76310;SDS011;65120;59.304;18.294;2024-01-06T13:29:07;2.38;;;0.95;;
76310;SDS011;65120;59.304;18.294;2024-01-06T13:31:36;2.30;;;0.82;;
76310;SDS011;65120;59.304;18.294;2024-01-06T13:34:04;1.58;;;0.70;;
76310;SDS011;65120;59.304;18.294;2024-01-06T13:36:31;3.40;;;1.10;;
76310;SDS011;65120;59.304;18.294;2024-01-06T13:38:58;2.63;;;0.75;;
76310;SDS011;65120;59.304;18.294;2024-01-06T13:41:26;2.45;;;0.70;;
76310;SDS011;65120;59.304;18.294;2024-01-06T13:43:53;1.45;;;0.55;;
76310;SDS011;65120;59.304;18.294;2024-01-06T13:46:21;1.10;;;0.68;;
76310;SDS011;65120;59.304;18.294;2024-01-06T13:48:50;1.65;;;0.63;;
76310;SDS011;65120;59.304;18.294;2024-01-06T13:51:17;1.52;;;0.65;;
76310;SDS011;65120;59.304;18.294;2024-01-06T13:53:43;1.23;;;0.60;;
76310;SDS011;65120;59.304;18.294;2024-01-06T13:56:10;3.47;;;0.80;;
76310;SDS011;65120;59.304;18.294;2024-01-06T13:58:37;2.50;;;1.05;;
76310;SDS011;65120;59.304;18.294;2024-01-06T14:01:04;2.63;;;1.23;;
76310;SDS011;65120;59.304;18.294;2024-01-06T14:03:35;4.20;;;0.70;;
76310;SDS011;65120;59.304;18.294;2024-01-06T14:06:02;2.42;;;0.57;;
76310;SDS011;65120;59.304;18.294;2024-01-06T14:08:29;1.85;;;0.90;;
76310;SDS011;65120;59.304;18.294;2024-01-06T14:10:56;2.28;;;1.02;;
76310;SDS011;65120;59.304;18.294;2024-01-06T14:13:23;1.73;;;0.80;;
76310;SDS011;65120;59.304;18.294;2024-01-06T14:15:51;1.65;;;0.50;;
76310;SDS011;65120;59.304;18.294;2024-01-06T14:18:18;1.05;;;0.50;;
76310;SDS011;65120;59.304;18.294;2024-01-06T14:20:46;1.08;;;0.38;;
76310;SDS011;65120;59.304;18.294;2024-01-06T14:23:13;1.45;;;0.50;;
76310;SDS011;65120;59.304;18.294;2024-01-06T14:25:40;1.10;;;0.65;;
76310;SDS011;65120;59.304;18.294;2024-01-06T14:28:07;1.15;;;0.43;;
76310;SDS011;65120;59.304;18.294;2024-01-06T14:30:34;1.77;;;0.60;;
76310;SDS011;65120;59.304;18.294;2024-01-06T14:33:01;1.50;;;0.60;;
76310;SDS011;65120;59.304;18.294;2024-01-06T14:35:28;4.97;;;0.80;;
76310;SDS011;65120;59.304;18.294;2024-01-06T14:37:57;1.70;;;0.50;;